createdAt,value
2023-03-22T00:01:13.256Z,3.00
2023-03-22T00:03:40.012Z,3.20
2023-03-22T00:06:06.954Z,3.28
2023-03-22T00:08:33.611Z,4.35
2023-03-22T00:11:00.238Z,3.13
2023-03-22T00:13:26.849Z,3.67
2023-03-22T00:15:54.929Z,4.10
2023-03-22T00:18:21.675Z,3.22
2023-03-22T00:20:49.234Z,3.83
2023-03-22T00:23:15.882Z,3.95
2023-03-22T00:25:43.640Z,4.10
2023-03-22T00:28:10.257Z,3.13
2023-03-22T00:30:37.254Z,2.60
2023-03-22T00:33:04.252Z,3.38
2023-03-22T00:35:30.900Z,4.32
2023-03-22T00:37:57.448Z,2.78
2023-03-22T00:40:23.940Z,3.45
2023-03-22T00:42:50.714Z,2.85
2023-03-22T00:45:17.777Z,3.00
2023-03-22T00:47:44.584Z,2.65
2023-03-22T00:50:11.238Z,3.08
2023-03-22T00:52:37.809Z,2.55
2023-03-22T00:55:04.571Z,3.42
2023-03-22T00:57:31.161Z,3.45
2023-03-22T00:59:58.385Z,3.33
2023-03-22T01:02:29.758Z,3.05
2023-03-22T01:04:56.496Z,3.05
2023-03-22T01:07:24.178Z,3.35
2023-03-22T01:09:51.590Z,3.30
2023-03-22T01:12:18.885Z,3.58
2023-03-22T01:14:45.803Z,3.65
2023-03-22T01:17:12.444Z,4.30
2023-03-22T01:19:39.164Z,4.25
2023-03-22T01:22:06.863Z,4.93
2023-03-22T01:24:34.603Z,4.55
2023-03-22T01:27:01.120Z,4.10
2023-03-22T01:29:27.680Z,4.30
2023-03-22T01:31:54.324Z,4.38
2023-03-22T01:34:20.975Z,4.80
2023-03-22T01:36:47.749Z,4.75
2023-03-22T01:39:15.268Z,5.03
2023-03-22T01:41:43.325Z,4.80
2023-03-22T01:44:15.476Z,4.50
2023-03-22T01:46:43.201Z,4.95
2023-03-22T01:49:12.743Z,4.68
2023-03-22T01:51:42.757Z,4.50
2023-03-22T01:54:46.261Z,5.70
2023-03-22T01:57:45.400Z,5.13
2023-03-22T02:00:21.138Z,4.65
2023-03-22T02:03:19.859Z,4.78
2023-03-22T02:05:47.873Z,4.40
2023-03-22T02:08:15.234Z,4.88
2023-03-22T02:10:58.238Z,4.97
2023-03-22T02:13:38.879Z,4.50
2023-03-22T02:16:47.002Z,4.90
2023-03-22T02:19:52.002Z,5.25
2023-03-22T02:22:21.919Z,4.88
2023-03-22T02:25:07.255Z,4.60
2023-03-22T02:27:52.476Z,4.07
2023-03-22T02:32:48.662Z,4.32
2023-03-22T02:35:24.165Z,4.15
2023-03-22T02:38:14.540Z,4.05
2023-03-22T02:40:49.936Z,4.38
2023-03-22T02:43:26.943Z,4.03
2023-03-22T02:45:56.336Z,4.20
2023-03-22T02:48:27.660Z,3.95
2023-03-22T02:51:00.858Z,4.22
2023-03-22T02:53:35.102Z,4.10
2023-03-22T02:56:07.389Z,4.40
2023-03-22T02:58:45.711Z,3.30
2023-03-22T03:01:18.019Z,4.40
2023-03-22T03:03:48.177Z,4.20
2023-03-22T03:06:18.100Z,4.07
2023-03-22T03:08:46.801Z,4.25
2023-03-22T03:11:13.820Z,4.70
2023-03-22T03:13:40.672Z,4.03
2023-03-22T03:16:08.098Z,3.10
2023-03-22T03:18:44.661Z,4.07
2023-03-22T03:21:30.344Z,3.47
2023-03-22T03:24:03.382Z,3.70
2023-03-22T03:26:29.927Z,3.70
2023-03-22T03:29:05.699Z,3.85
2023-03-22T03:31:52.701Z,3.65
2023-03-22T03:34:19.279Z,3.30
2023-03-22T03:37:09.009Z,2.90
2023-03-22T03:39:38.794Z,3.10
2023-03-22T03:42:06.862Z,3.47
2023-03-22T03:44:35.954Z,3.53
2023-03-22T03:47:05.526Z,3.58
2023-03-22T03:49:32.167Z,3.45
2023-03-22T03:51:59.654Z,2.33
2023-03-22T03:54:26.400Z,2.97
2023-03-22T03:56:53.781Z,3.10
2023-03-22T03:59:23.329Z,4.32
2023-03-22T04:01:52.770Z,3.10
2023-03-22T04:04:27.363Z,3.83
2023-03-22T04:07:02.272Z,2.70
2023-03-22T04:09:31.333Z,2.42
2023-03-22T04:12:05.399Z,2.35
2023-03-22T04:14:32.566Z,2.78
2023-03-22T04:17:06.270Z,2.63
2023-03-22T04:19:33.127Z,3.15
2023-03-22T04:22:00.292Z,2.20
2023-03-22T04:24:27.002Z,2.45
2023-03-22T04:26:53.696Z,2.20
2023-03-22T04:29:32.216Z,2.30
2023-03-22T04:32:13.029Z,2.58
2023-03-22T04:34:42.811Z,2.33
2023-03-22T04:37:12.335Z,2.72
2023-03-22T04:39:51.050Z,2.45
2023-03-22T04:42:20.912Z,1.98
2023-03-22T04:44:51.942Z,2.15
2023-03-22T04:47:18.458Z,1.95
2023-03-22T04:49:45.062Z,1.90
2023-03-22T04:52:12.809Z,2.70
2023-03-22T04:54:44.093Z,2.20
2023-03-22T04:57:12.126Z,2.78
2023-03-22T04:59:43.522Z,2.10
2023-03-22T05:02:10.272Z,2.28
2023-03-22T05:04:41.484Z,2.00
2023-03-22T05:07:27.552Z,2.50
2023-03-22T05:09:57.421Z,2.60
2023-03-22T05:12:23.952Z,2.40
2023-03-22T05:14:56.040Z,2.97
2023-03-22T05:17:27.093Z,2.00
2023-03-22T05:19:56.521Z,2.08
2023-03-22T05:22:23.109Z,3.00
2023-03-22T05:24:51.773Z,2.58
2023-03-22T05:27:31.567Z,1.90
2023-03-22T05:30:16.987Z,2.42
2023-03-22T05:32:50.446Z,2.08
2023-03-22T05:35:17.555Z,2.22
2023-03-22T05:37:49.623Z,2.28
2023-03-22T05:40:17.126Z,2.20
2023-03-22T05:42:45.557Z,2.33
2023-03-22T05:45:20.622Z,2.38
2023-03-22T05:47:55.355Z,2.20
2023-03-22T05:50:22.842Z,2.45
2023-03-22T05:52:49.720Z,2.20
2023-03-22T05:55:32.233Z,2.25
2023-03-22T05:58:01.994Z,2.17
2023-03-22T06:00:36.257Z,2.57
2023-03-22T06:03:21.704Z,2.38
2023-03-22T06:05:59.617Z,2.00
2023-03-22T06:08:39.929Z,2.20
2023-03-22T06:11:07.418Z,2.65
2023-03-22T06:13:35.389Z,2.40
2023-03-22T06:16:02.876Z,2.17
2023-03-22T06:18:30.974Z,1.92
2023-03-22T06:21:04.788Z,2.33
2023-03-22T06:23:31.609Z,2.55
2023-03-22T06:25:58.201Z,2.38
2023-03-22T06:28:29.592Z,2.58
2023-03-22T06:30:56.801Z,2.67
2023-03-22T06:33:33.198Z,2.17
2023-03-22T06:36:12.868Z,2.78
2023-03-22T06:38:57.664Z,2.60
2023-03-22T06:41:24.976Z,2.63
2023-03-22T06:43:52.680Z,2.15
2023-03-22T06:46:42.743Z,3.03
2023-03-22T06:49:19.375Z,2.03
2023-03-22T06:51:46.134Z,2.00
2023-03-22T06:54:13.472Z,2.22
2023-03-22T06:56:40.676Z,3.45
2023-03-22T06:59:07.348Z,2.33
2023-03-22T07:01:34.196Z,2.30
2023-03-22T07:04:01.240Z,2.30
2023-03-22T07:06:27.871Z,2.67
2023-03-22T07:08:55.539Z,2.38
2023-03-22T07:11:28.173Z,2.63
2023-03-22T07:14:04.928Z,2.50
2023-03-22T07:16:51.731Z,2.40
2023-03-22T07:19:20.956Z,2.25
2023-03-22T07:21:47.437Z,2.20
2023-03-22T07:24:14.253Z,2.80
2023-03-22T07:26:41.721Z,2.65
2023-03-22T07:29:11.509Z,2.25
2023-03-22T07:31:38.162Z,1.90
2023-03-22T07:34:09.082Z,3.92
2023-03-22T07:37:11.284Z,2.53
2023-03-22T07:39:40.788Z,2.10
2023-03-22T07:42:07.439Z,2.58
2023-03-22T07:45:09.384Z,2.28
2023-03-22T07:47:56.500Z,2.53
2023-03-22T07:50:54.986Z,3.00
2023-03-22T07:53:22.095Z,2.60
2023-03-22T07:55:48.948Z,2.20
2023-03-22T07:58:15.815Z,2.72
2023-03-22T08:00:42.814Z,2.55
2023-03-22T08:03:28.253Z,2.30
2023-03-22T08:06:19.559Z,2.97
2023-03-22T08:08:46.481Z,2.22
2023-03-22T08:11:13.315Z,2.10
2023-03-22T08:13:40.078Z,3.05
2023-03-22T08:16:09.141Z,2.22
2023-03-22T08:18:36.183Z,2.28
2023-03-22T08:21:03.010Z,2.25
2023-03-22T08:23:41.569Z,2.85
2023-03-22T08:26:29.078Z,2.83
2023-03-22T08:29:01.596Z,2.03
2023-03-22T08:31:32.736Z,2.05
2023-03-22T08:33:59.359Z,2.30
2023-03-22T08:36:26.266Z,3.35
2023-03-22T08:38:59.335Z,2.47
2023-03-22T08:41:38.680Z,3.30
2023-03-22T08:44:05.866Z,2.63
2023-03-22T08:46:34.377Z,2.38
2023-03-22T08:49:11.498Z,2.17
2023-03-22T08:51:42.429Z,2.65
2023-03-22T08:54:16.699Z,3.25
2023-03-22T08:57:13.712Z,2.55
2023-03-22T08:59:57.752Z,2.42
2023-03-22T09:02:44.666Z,2.83
2023-03-22T09:05:11.516Z,2.55
2023-03-22T09:07:38.625Z,2.28
2023-03-22T09:10:11.754Z,2.25
2023-03-22T09:12:42.134Z,2.60
2023-03-22T09:15:09.330Z,3.30
2023-03-22T09:17:39.321Z,3.25
2023-03-22T09:20:12.868Z,2.70
2023-03-22T09:22:42.607Z,2.58
2023-03-22T09:25:12.794Z,2.97
2023-03-22T09:27:42.715Z,3.42
2023-03-22T09:30:09.472Z,2.70
2023-03-22T09:32:36.088Z,2.25
2023-03-22T09:35:04.487Z,2.70
2023-03-22T09:37:39.252Z,2.92
2023-03-22T09:40:07.446Z,2.63
2023-03-22T09:42:45.544Z,2.88
2023-03-22T09:45:16.726Z,2.20
2023-03-22T09:47:46.684Z,3.22
2023-03-22T09:50:16.448Z,2.78
2023-03-22T09:52:43.888Z,2.33
2023-03-22T09:55:17.440Z,2.42
2023-03-22T09:57:45.986Z,2.40
2023-03-22T10:00:14.550Z,3.22
2023-03-22T10:02:54.997Z,2.83
2023-03-22T10:05:30.614Z,2.88
2023-03-22T10:08:11.314Z,2.40
2023-03-22T10:10:41.912Z,2.50
2023-03-22T10:13:13.823Z,2.60
2023-03-22T10:15:46.040Z,2.55
2023-03-22T10:18:20.909Z,2.67
2023-03-22T10:23:29.323Z,2.40
2023-03-22T10:25:56.611Z,1.85
2023-03-22T10:28:26.891Z,2.13
2023-03-22T10:30:55.490Z,2.55
2023-03-22T10:33:37.323Z,1.98
2023-03-22T10:36:04.638Z,4.10
2023-03-22T10:38:31.656Z,1.75
2023-03-22T10:40:59.173Z,2.10
2023-03-22T10:43:31.391Z,2.55
2023-03-22T10:45:58.640Z,1.70
2023-03-22T10:48:28.225Z,2.20
2023-03-22T10:50:55.239Z,2.83
2023-03-22T10:53:28.134Z,2.35
2023-03-22T10:55:54.766Z,2.70
2023-03-22T10:58:22.834Z,2.60
2023-03-22T11:00:53.979Z,2.20
2023-03-22T11:03:28.930Z,2.33
2023-03-22T11:06:04.943Z,2.45
2023-03-22T11:08:39.400Z,2.92
2023-03-22T11:11:07.754Z,2.15
2023-03-22T11:13:35.326Z,3.20
2023-03-22T11:16:03.069Z,2.55
2023-03-22T11:18:31.402Z,2.53
2023-03-22T11:20:59.651Z,2.28
2023-03-22T11:23:26.723Z,2.30
2023-03-22T11:25:56.297Z,2.10
2023-03-22T11:28:27.082Z,2.40
2023-03-22T11:30:59.488Z,2.20
2023-03-22T11:33:26.617Z,2.20
2023-03-22T11:35:57.142Z,2.50
2023-03-22T11:38:38.089Z,2.22
2023-03-22T11:41:08.837Z,2.50
2023-03-22T11:43:44.063Z,2.28
2023-03-22T11:46:10.965Z,3.03
2023-03-22T11:48:40.026Z,2.35
2023-03-22T11:51:06.766Z,2.58
2023-03-22T11:53:34.221Z,2.30
2023-03-22T11:56:02.205Z,1.80
2023-03-22T11:58:29.862Z,2.60
2023-03-22T12:00:58.614Z,2.38
2023-03-22T12:03:29.838Z,2.55
2023-03-22T12:05:58.353Z,2.83
2023-03-22T12:08:32.819Z,2.28
2023-03-22T12:11:05.111Z,2.50
2023-03-22T12:13:46.650Z,2.35
2023-03-22T12:16:15.534Z,2.35
2023-03-22T12:18:47.075Z,3.08
2023-03-22T12:21:13.671Z,2.47
2023-03-22T12:23:40.374Z,2.65
2023-03-22T12:26:11.762Z,2.55
2023-03-22T12:28:59.512Z,3.47
2023-03-22T12:31:33.961Z,2.60
2023-03-22T12:34:03.122Z,2.67
2023-03-22T12:36:49.870Z,2.78
2023-03-22T12:39:35.200Z,2.88
2023-03-22T12:42:04.160Z,3.42
2023-03-22T12:44:43.266Z,3.72
2023-03-22T12:47:12.864Z,3.10
2023-03-22T12:49:58.454Z,3.13
2023-03-22T12:52:37.680Z,2.75
2023-03-22T12:55:10.875Z,3.42
2023-03-22T12:57:38.626Z,3.10
2023-03-22T13:00:13.859Z,2.67
2023-03-22T13:02:46.535Z,2.42
2023-03-22T13:05:13.505Z,2.50
2023-03-22T13:08:04.073Z,2.63
2023-03-22T13:10:30.895Z,2.58
2023-03-22T13:13:31.921Z,2.75
2023-03-22T13:16:01.451Z,3.13
2023-03-22T13:18:33.588Z,2.60
2023-03-22T13:21:19.812Z,3.13
2023-03-22T13:23:52.388Z,2.75
2023-03-22T13:26:19.612Z,3.00
2023-03-22T13:28:57.275Z,2.63
2023-03-22T13:31:34.717Z,2.70
2023-03-22T13:34:02.810Z,2.80
2023-03-22T13:36:29.904Z,3.20
2023-03-22T13:39:03.252Z,2.85
2023-03-22T13:41:31.476Z,3.15
2023-03-22T13:43:59.268Z,2.45
2023-03-22T13:46:26.031Z,2.67
2023-03-22T13:48:54.407Z,2.70
2023-03-22T13:51:25.474Z,2.92
2023-03-22T13:54:01.320Z,2.88
2023-03-22T13:56:48.600Z,2.67
2023-03-22T13:59:27.332Z,2.78
2023-03-22T14:01:57.481Z,3.58
2023-03-22T14:04:45.365Z,3.83
2023-03-22T14:07:19.669Z,3.67
2023-03-22T14:09:49.805Z,3.47
2023-03-22T14:12:25.286Z,2.80
2023-03-22T14:14:55.219Z,3.38
2023-03-22T14:17:24.949Z,3.13
2023-03-22T14:19:51.732Z,3.17
